createdAt,value
2023-04-03T00:01:05.456Z,1.77
2023-04-03T00:03:32.069Z,0.73
2023-04-03T00:05:58.744Z,0.80
2023-04-03T00:08:25.381Z,1.05
2023-04-03T00:10:52.031Z,1.00
2023-04-03T00:13:18.696Z,1.45
2023-04-03T00:15:46.073Z,1.15
2023-04-03T00:18:12.806Z,1.13
2023-04-03T00:20:39.561Z,0.85
2023-04-03T00:23:06.651Z,0.73
2023-04-03T00:25:33.954Z,1.52
2023-04-03T00:28:00.522Z,0.70
2023-04-03T00:30:27.380Z,0.85
2023-04-03T00:32:54.038Z,0.57
2023-04-03T00:35:22.090Z,1.10
2023-04-03T00:37:48.880Z,1.30
2023-04-03T00:40:16.935Z,1.38
2023-04-03T00:42:44.370Z,0.77
2023-04-03T00:45:16.663Z,1.63
2023-04-03T00:47:43.283Z,0.43
2023-04-03T00:50:10.037Z,0.90
2023-04-03T00:52:37.872Z,1.00
2023-04-03T00:55:07.519Z,1.52
2023-04-03T00:57:34.697Z,0.40
2023-04-03T01:00:06.999Z,0.98
2023-04-03T01:02:33.656Z,1.02
2023-04-03T01:05:00.361Z,1.02
2023-04-03T01:07:34.999Z,1.42
2023-04-03T01:10:03.907Z,0.95
2023-04-03T01:12:36.884Z,0.90
2023-04-03T01:15:11.371Z,1.80
2023-04-03T01:17:44.328Z,1.55
2023-04-03T01:20:26.190Z,0.65
2023-04-03T01:23:11.099Z,0.70
2023-04-03T01:25:41.858Z,0.90
2023-04-03T01:28:11.634Z,1.42
2023-04-03T01:31:04.211Z,0.77
2023-04-03T01:33:31.192Z,1.88
2023-04-03T01:35:57.868Z,0.60
2023-04-03T01:38:24.749Z,0.98
2023-04-03T01:40:51.654Z,1.13
2023-04-03T01:43:18.209Z,0.38
2023-04-03T01:45:44.969Z,0.57
2023-04-03T01:48:11.617Z,0.95
2023-04-03T01:50:38.540Z,0.88
2023-04-03T01:53:05.390Z,0.93
2023-04-03T01:55:31.948Z,0.98
2023-04-03T01:57:58.495Z,0.82
2023-04-03T02:00:25.062Z,1.13
2023-04-03T02:02:51.673Z,1.08
2023-04-03T02:05:18.295Z,1.33
2023-04-03T02:07:44.950Z,0.77
2023-04-03T02:10:11.646Z,0.70
2023-04-03T02:12:38.230Z,0.82
2023-04-03T02:15:05.655Z,1.13
2023-04-03T02:17:32.292Z,0.38
2023-04-03T02:19:58.871Z,1.65
2023-04-03T02:22:25.557Z,1.08
2023-04-03T02:24:52.841Z,1.00
2023-04-03T02:27:19.456Z,0.50
2023-04-03T02:29:45.999Z,0.75
2023-04-03T02:32:12.561Z,1.40
2023-04-03T02:34:39.126Z,0.80
2023-04-03T02:37:06.229Z,0.35
2023-04-03T02:39:32.822Z,0.60
2023-04-03T02:41:59.366Z,0.40
2023-04-03T02:44:26.019Z,0.57
2023-04-03T02:46:52.564Z,1.10
2023-04-03T02:49:19.453Z,1.13
2023-04-03T02:51:46.740Z,1.27
2023-04-03T02:54:13.345Z,1.08
2023-04-03T02:56:39.928Z,1.75
2023-04-03T02:59:07.154Z,0.80
2023-04-03T03:01:33.799Z,0.60
2023-04-03T03:04:01.027Z,0.73
2023-04-03T03:06:27.722Z,1.83
2023-04-03T03:08:54.490Z,0.80
2023-04-03T03:11:22.011Z,1.08
2023-04-03T03:13:48.628Z,0.38
2023-04-03T03:16:15.484Z,1.35
2023-04-03T03:18:42.118Z,0.40
2023-04-03T03:21:10.828Z,0.47
2023-04-03T03:23:37.545Z,1.30
2023-04-03T03:26:07.617Z,0.57
2023-04-03T03:28:34.540Z,0.50
2023-04-03T03:31:01.555Z,0.30
2023-04-03T03:33:28.188Z,0.50
2023-04-03T03:35:55.296Z,0.95
2023-04-03T03:38:22.076Z,0.60
2023-04-03T03:40:49.706Z,0.75
2023-04-03T03:43:16.722Z,1.10
2023-04-03T03:45:43.336Z,0.50
2023-04-03T03:48:09.877Z,0.57
2023-04-03T03:50:36.454Z,0.93
2023-04-03T03:53:03.042Z,0.85
2023-04-03T03:55:29.614Z,0.30
2023-04-03T03:57:56.156Z,0.32
2023-04-03T04:00:22.720Z,0.55
2023-04-03T04:02:49.304Z,0.30
2023-04-03T04:05:16.009Z,0.50
2023-04-03T04:07:42.643Z,0.47
2023-04-03T04:10:09.707Z,0.68
2023-04-03T04:12:36.695Z,0.80
2023-04-03T04:15:04.013Z,0.47
2023-04-03T04:17:30.652Z,0.73
2023-04-03T04:19:57.292Z,0.30
2023-04-03T04:22:23.850Z,0.80
2023-04-03T04:24:50.413Z,1.02
2023-04-03T04:27:17.029Z,0.40
2023-04-03T04:29:43.572Z,0.40
2023-04-03T04:32:10.144Z,0.88
2023-04-03T04:34:36.782Z,0.73
2023-04-03T04:37:03.592Z,0.85
2023-04-03T04:39:30.410Z,0.77
2023-04-03T04:41:57.082Z,0.45
2023-04-03T04:44:23.619Z,0.50
2023-04-03T04:46:50.188Z,0.30
2023-04-03T04:49:16.761Z,0.55
2023-04-03T04:51:51.545Z,0.70
2023-04-03T04:54:19.096Z,0.68
2023-04-03T04:56:45.880Z,0.70
2023-04-03T04:59:12.509Z,0.47
2023-04-03T05:01:39.081Z,0.68
2023-04-03T05:04:05.759Z,0.40
2023-04-03T05:06:33.101Z,0.50
2023-04-03T05:09:00.229Z,1.40
2023-04-03T05:11:27.181Z,0.90
2023-04-03T05:13:53.816Z,0.50
2023-04-03T05:16:20.451Z,0.55
2023-04-03T05:18:47.149Z,0.32
2023-04-03T05:21:13.708Z,1.23
2023-04-03T05:23:40.300Z,0.40
2023-04-03T05:26:06.907Z,1.65
2023-04-03T05:28:33.585Z,0.52
2023-04-03T05:31:00.428Z,0.38
2023-04-03T05:33:27.330Z,0.30
2023-04-03T05:35:55.446Z,0.90
2023-04-03T05:38:22.193Z,0.50
2023-04-03T05:40:48.971Z,0.98
2023-04-03T05:43:15.933Z,1.05
2023-04-03T05:45:45.550Z,0.65
2023-04-03T05:48:13.954Z,0.40
2023-04-03T05:50:42.637Z,0.82
2023-04-03T05:53:17.607Z,1.33
2023-04-03T05:55:44.296Z,2.35
2023-04-03T05:58:11.700Z,0.57
2023-04-03T06:00:38.649Z,0.70
2023-04-03T06:03:05.423Z,2.92
2023-04-03T06:05:32.170Z,1.80
2023-04-03T06:07:58.836Z,0.70
2023-04-03T06:10:25.380Z,0.68
2023-04-03T06:12:52.342Z,1.25
2023-04-03T06:15:19.018Z,1.17
2023-04-03T06:17:46.099Z,0.80
2023-04-03T06:20:13.250Z,0.40
2023-04-03T06:22:39.941Z,0.82
2023-04-03T06:25:07.367Z,0.60
2023-04-03T06:27:34.109Z,1.38
2023-04-03T06:30:01.041Z,1.00
2023-04-03T06:32:27.786Z,1.13
2023-04-03T06:34:54.626Z,0.85
2023-04-03T06:37:23.573Z,1.23
2023-04-03T06:39:50.406Z,1.88
2023-04-03T06:42:17.156Z,1.50
2023-04-03T06:44:43.714Z,1.13
2023-04-03T06:47:14.671Z,1.05
2023-04-03T06:49:41.297Z,1.08
2023-04-03T06:52:08.366Z,2.33
2023-04-03T06:54:34.926Z,1.50
2023-04-03T06:57:01.707Z,1.65
2023-04-03T06:59:28.473Z,1.00
2023-04-03T07:01:55.105Z,0.75
2023-04-03T07:04:22.042Z,2.72
2023-04-03T07:06:49.058Z,1.83
2023-04-03T07:09:16.077Z,1.52
2023-04-03T07:11:42.680Z,1.48
2023-04-03T07:14:09.314Z,2.63
2023-04-03T07:16:36.262Z,5.22
2023-04-03T07:19:03.896Z,3.78
2023-04-03T07:21:30.686Z,3.80
2023-04-03T07:23:57.286Z,6.55
2023-04-03T07:26:23.855Z,6.22
2023-04-03T07:28:51.020Z,8.35
2023-04-03T07:31:18.481Z,6.07
2023-04-03T07:33:46.114Z,20.10
2023-04-03T07:36:16.116Z,12.98
2023-04-03T07:38:42.721Z,11.15
2023-04-03T07:41:16.169Z,16.58
2023-04-03T07:43:43.333Z,16.05
2023-04-03T07:46:10.361Z,13.15
2023-04-03T07:48:37.047Z,8.52
2023-04-03T07:51:05.465Z,16.88
2023-04-03T07:53:32.763Z,13.18
2023-04-03T07:56:00.350Z,10.73
2023-04-03T07:58:27.810Z,11.60
2023-04-03T08:00:54.486Z,12.77
2023-04-03T08:03:21.371Z,12.60
2023-04-03T08:05:49.688Z,11.57
2023-04-03T08:08:22.970Z,11.52
2023-04-03T08:10:51.381Z,9.82
2023-04-03T08:13:18.972Z,12.35
2023-04-03T08:15:45.627Z,11.45
2023-04-03T08:18:12.324Z,10.15
2023-04-03T08:20:39.702Z,10.23
2023-04-03T08:23:06.497Z,9.65
2023-04-03T08:25:33.165Z,10.40
2023-04-03T08:27:59.742Z,9.15
2023-04-03T08:30:26.362Z,10.40
2023-04-03T08:32:52.986Z,10.50
2023-04-03T08:35:20.945Z,8.25
2023-04-03T08:37:47.793Z,8.98
2023-04-03T08:40:17.260Z,10.77
2023-04-03T08:43:05.210Z,7.20
2023-04-03T08:45:48.160Z,6.00
2023-04-03T08:48:22.678Z,10.03
2023-04-03T08:50:55.763Z,7.68
2023-04-03T08:53:27.764Z,6.60
2023-04-03T08:55:54.523Z,8.65
2023-04-03T08:58:23.532Z,7.38
2023-04-03T09:00:57.569Z,6.97
2023-04-03T09:03:24.445Z,5.30
2023-04-03T09:06:01.756Z,6.10
2023-04-03T09:08:30.490Z,6.70
2023-04-03T09:11:06.631Z,8.13
2023-04-03T09:13:51.453Z,6.88
2023-04-03T09:16:27.341Z,8.73
2023-04-03T09:19:07.079Z,6.88
2023-04-03T09:21:38.703Z,7.72
2023-04-03T09:24:08.555Z,7.95
2023-04-03T09:26:40.410Z,4.85
2023-04-03T09:29:08.560Z,7.28
2023-04-03T09:31:42.222Z,9.10
2023-04-03T09:34:18.214Z,10.65
2023-04-03T09:36:47.753Z,6.30
2023-04-03T09:39:20.156Z,6.50
2023-04-03T09:41:57.784Z,6.10
2023-04-03T09:44:36.377Z,8.82
2023-04-03T09:47:27.738Z,7.28
2023-04-03T09:50:20.235Z,9.43
2023-04-03T09:52:52.684Z,6.57
2023-04-03T09:55:22.228Z,7.60
2023-04-03T09:57:51.604Z,7.45
2023-04-03T10:00:33.358Z,8.38
2023-04-03T10:03:00.991Z,7.00
2023-04-03T10:05:34.223Z,6.75
2023-04-03T10:08:16.321Z,8.05
2023-04-03T10:10:48.084Z,8.05
2023-04-03T10:13:22.122Z,6.07
2023-04-03T10:15:55.436Z,8.32
2023-04-03T10:18:28.648Z,6.45
2023-04-03T10:20:58.998Z,6.40
2023-04-03T10:23:43.680Z,8.07
2023-04-03T10:26:14.672Z,8.18
2023-04-03T10:29:01.925Z,4.95
2023-04-03T10:31:44.376Z,8.10
2023-04-03T10:34:23.204Z,7.38
2023-04-03T10:37:15.253Z,3.78
2023-04-03T10:39:44.698Z,5.95
2023-04-03T10:42:29.192Z,7.93
2023-04-03T10:45:23.726Z,4.78
2023-04-03T10:47:59.246Z,3.83
2023-04-03T10:50:55.294Z,4.75
2023-04-03T10:53:33.996Z,4.97
2023-04-03T10:56:18.354Z,8.20
2023-04-03T10:58:46.729Z,6.65
2023-04-03T11:01:23.066Z,9.15
2023-04-03T11:03:53.807Z,6.32
2023-04-03T11:06:24.617Z,4.65
2023-04-03T11:09:00.698Z,5.72
2023-04-03T11:11:30.874Z,5.25
2023-04-03T11:14:02.546Z,4.72
2023-04-03T11:16:33.716Z,5.07
2023-04-03T11:19:15.759Z,4.95
2023-04-03T11:21:45.378Z,5.03
2023-04-03T11:24:33.173Z,4.47
2023-04-03T11:27:01.289Z,5.40
2023-04-03T11:29:35.978Z,4.07
2023-04-03T11:32:17.924Z,4.70
2023-04-03T11:34:48.206Z,6.38
2023-04-03T11:37:39.413Z,5.47
2023-04-03T11:40:30.954Z,4.03
2023-04-03T11:43:00.172Z,4.10
2023-04-03T11:45:28.975Z,3.35
2023-04-03T11:48:23.915Z,4.70
2023-04-03T11:50:52.324Z,5.10
2023-04-03T11:53:36.912Z,5.15
2023-04-03T11:56:05.093Z,4.30
2023-04-03T11:58:38.047Z,4.97
2023-04-03T12:01:09.703Z,3.47
2023-04-03T12:03:43.481Z,3.85
2023-04-03T12:06:11.458Z,4.28
2023-04-03T12:08:40.655Z,3.53
2023-04-03T12:11:10.388Z,3.60
2023-04-03T12:13:39.901Z,4.80
2023-04-03T12:16:27.910Z,4.57
2023-04-03T12:18:54.527Z,4.55
2023-04-03T12:21:23.507Z,3.10
2023-04-03T12:24:02.517Z,3.92
2023-04-03T12:26:52.709Z,2.55
2023-04-03T12:29:24.670Z,4.65
2023-04-03T12:32:06.329Z,3.63
2023-04-03T12:35:09.784Z,4.28
2023-04-03T12:38:02.986Z,3.50
2023-04-03T12:40:47.264Z,3.73
2023-04-03T12:43:51.493Z,3.65
2023-04-03T12:48:56.043Z,2.53
2023-04-03T12:54:15.014Z,2.55
2023-04-03T12:56:41.579Z,2.70
2023-04-03T12:59:27.795Z,2.22
2023-04-03T13:01:59.389Z,4.32
2023-04-03T13:04:27.516Z,4.53
2023-04-03T13:06:54.123Z,3.22
2023-04-03T13:09:29.531Z,3.28
2023-04-03T13:12:00.547Z,2.75
2023-04-03T13:14:29.625Z,2.42
2023-04-03T13:17:01.160Z,2.70
2023-04-03T13:19:30.012Z,1.55
2023-04-03T13:22:22.927Z,2.65
2023-04-03T13:24:52.221Z,2.80
2023-04-03T13:27:18.844Z,2.97
2023-04-03T13:29:51.869Z,2.45
2023-04-03T13:32:24.512Z,2.85
2023-04-03T13:34:51.538Z,2.60
2023-04-03T13:37:33.302Z,2.80
2023-04-03T13:40:07.663Z,2.97
2023-04-03T13:42:37.670Z,2.85
2023-04-03T13:45:11.967Z,3.45
2023-04-03T13:47:40.689Z,2.47
2023-04-03T13:50:13.461Z,1.83
2023-04-03T13:52:43.429Z,2.80
2023-04-03T13:55:25.819Z,3.00
2023-04-03T14:00:56.320Z,3.22
2023-04-03T14:03:43.124Z,2.17
2023-04-03T14:06:14.195Z,3.10
2023-04-03T14:08:43.538Z,4.15
2023-04-03T14:11:17.681Z,2.80
2023-04-03T14:13:45.274Z,2.17
2023-04-03T14:16:32.425Z,3.67
2023-04-03T14:18:59.237Z,2.85
2023-04-03T14:21:25.910Z,3.00
2023-04-03T14:23:52.521Z,2.85
2023-04-03T14:26:21.818Z,2.65
2023-04-03T14:28:50.678Z,2.58
2023-04-03T14:31:17.480Z,3.33
2023-04-03T14:33:44.851Z,2.88
2023-04-03T14:36:17.089Z,2.15
2023-04-03T14:38:45.296Z,2.70
2023-04-03T14:41:16.989Z,2.92
2023-04-03T14:43:45.123Z,2.95
2023-04-03T14:46:21.201Z,2.30
2023-04-03T14:48:47.805Z,2.67
2023-04-03T14:51:15.722Z,3.58
2023-04-03T14:53:44.637Z,3.88
2023-04-03T14:56:25.013Z,2.90
2023-04-03T14:58:56.521Z,3.17
2023-04-03T15:01:23.199Z,4.28
2023-04-03T15:03:49.918Z,2.70
2023-04-03T15:06:16.927Z,2.15
2023-04-03T15:08:44.483Z,2.70
2023-04-03T15:11:11.871Z,2.45
2023-04-03T15:13:39.292Z,2.60
2023-04-03T15:16:26.095Z,3.22
2023-04-03T15:18:52.715Z,2.88
2023-04-03T15:21:19.274Z,2.22
2023-04-03T15:23:45.908Z,3.50
2023-04-03T15:26:12.628Z,2.65
2023-04-03T15:28:41.239Z,2.35
2023-04-03T15:31:07.959Z,2.42
2023-04-03T15:33:35.614Z,2.50
2023-04-03T15:36:07.292Z,2.35
2023-04-03T15:38:39.184Z,1.80
2023-04-03T15:41:06.416Z,2.25
2023-04-03T15:43:34.737Z,2.47
2023-04-03T15:46:01.778Z,2.35
2023-04-03T15:48:29.154Z,1.58
2023-04-03T15:50:57.193Z,2.47
2023-04-03T15:53:24.520Z,2.00
2023-04-03T15:55:51.215Z,1.50
2023-04-03T15:58:17.833Z,2.83
2023-04-03T16:00:44.468Z,2.75
2023-04-03T16:03:13.500Z,2.35
2023-04-03T16:05:40.687Z,1.95
2023-04-03T16:08:08.676Z,2.33
2023-04-03T16:10:36.806Z,1.90
2023-04-03T16:13:04.334Z,1.80
2023-04-03T16:15:31.736Z,3.95
2023-04-03T16:17:59.537Z,2.33
2023-04-03T16:20:26.265Z,2.00
2023-04-03T16:22:53.031Z,2.20
2023-04-03T16:25:19.615Z,1.40
2023-04-03T16:27:46.222Z,1.67
2023-04-03T16:30:12.827Z,1.70
2023-04-03T16:32:40.058Z,1.88
2023-04-03T16:35:07.196Z,1.88
2023-04-03T16:37:33.870Z,2.47
2023-04-03T16:40:00.438Z,1.83
2023-04-03T16:42:27.095Z,1.58
2023-04-03T16:44:53.693Z,2.17
2023-04-03T16:47:20.824Z,1.90
2023-04-03T16:49:48.079Z,2.15
2023-04-03T16:52:15.494Z,1.27
2023-04-03T16:54:42.433Z,3.38
2023-04-03T16:57:09.008Z,1.98
2023-04-03T16:59:35.834Z,2.28
2023-04-03T17:02:02.400Z,1.35
2023-04-03T17:04:28.999Z,1.83
2023-04-03T17:06:55.928Z,1.83
2023-04-03T17:09:23.737Z,1.60
2023-04-03T17:11:50.444Z,1.50
2023-04-03T17:14:17.055Z,1.88
2023-04-03T17:16:43.839Z,1.92
2023-04-03T17:19:10.475Z,1.40
2023-04-03T17:21:37.045Z,1.65
2023-04-03T17:24:09.326Z,1.73
2023-04-03T17:26:37.511Z,1.63
2023-04-03T17:29:05.633Z,1.65
2023-04-03T17:31:32.693Z,1.77
2023-04-03T17:34:01.862Z,2.08
2023-04-03T17:36:32.182Z,1.55
2023-04-03T17:38:58.812Z,1.95
2023-04-03T17:41:26.225Z,1.63
2023-04-03T17:43:56.322Z,2.33
2023-04-03T17:46:24.352Z,2.28
2023-04-03T17:48:51.528Z,2.22
2023-04-03T17:51:23.045Z,1.42
2023-04-03T17:53:50.030Z,3.35
2023-04-03T17:56:29.445Z,1.27
2023-04-03T17:58:58.213Z,1.35
2023-04-03T18:01:30.913Z,1.70
2023-04-03T18:03:59.866Z,2.10
2023-04-03T18:06:37.036Z,1.33
2023-04-03T18:09:13.620Z,1.48
2023-04-03T18:11:40.342Z,2.08
2023-04-03T18:14:07.823Z,1.42
2023-04-03T18:16:34.785Z,1.83
2023-04-03T18:21:30.923Z,2.20
2023-04-03T18:23:57.469Z,1.95
2023-04-03T18:26:26.992Z,1.77
2023-04-03T18:28:59.138Z,2.53
2023-04-03T18:31:26.539Z,1.15
2023-04-03T18:33:54.901Z,1.35
2023-04-03T18:36:21.711Z,1.88
2023-04-03T18:38:48.267Z,2.28
2023-04-03T18:41:14.845Z,2.08
2023-04-03T18:43:41.387Z,1.70
2023-04-03T18:46:08.034Z,1.58
2023-04-03T18:48:35.404Z,2.53
2023-04-03T18:51:02.350Z,1.70
2023-04-03T18:53:29.150Z,2.50
2023-04-03T18:55:55.781Z,2.42
2023-04-03T18:58:22.564Z,1.70
2023-04-03T19:00:49.156Z,1.27
2023-04-03T19:03:15.950Z,1.58
2023-04-03T19:05:42.827Z,2.33
2023-04-03T19:08:09.592Z,1.75
2023-04-03T19:10:36.191Z,1.75
2023-04-03T19:13:02.767Z,1.98
2023-04-03T19:15:29.427Z,3.10
2023-04-03T19:17:56.077Z,1.77
2023-04-03T19:20:22.718Z,2.13
2023-04-03T19:22:49.451Z,1.30
2023-04-03T19:25:16.090Z,1.55
2023-04-03T19:27:42.858Z,1.73
2023-04-03T19:30:11.447Z,1.42
2023-04-03T19:32:38.081Z,2.10
2023-04-03T19:35:05.219Z,2.00
2023-04-03T19:37:31.818Z,1.45
2023-04-03T19:39:58.479Z,1.10
2023-04-03T19:42:28.236Z,1.42
2023-04-03T19:44:54.897Z,1.38
2023-04-03T19:47:22.320Z,1.45
2023-04-03T19:49:49.226Z,1.48
2023-04-03T19:52:15.952Z,1.42
2023-04-03T19:54:42.570Z,0.70
2023-04-03T19:57:09.333Z,1.35
2023-04-03T19:59:35.914Z,2.17
2023-04-03T20:02:02.610Z,1.17
2023-04-03T20:04:29.290Z,1.35
2023-04-03T20:06:57.006Z,1.20
2023-04-03T20:09:23.584Z,1.05
2023-04-03T20:11:51.441Z,0.73
2023-04-03T20:14:19.231Z,1.30
2023-04-03T20:16:47.314Z,1.33
2023-04-03T20:19:14.091Z,0.75
2023-04-03T20:21:41.369Z,0.40
2023-04-03T20:24:10.777Z,1.33
2023-04-03T20:26:42.160Z,1.75
2023-04-03T20:29:08.724Z,0.80
2023-04-03T20:31:35.643Z,1.30
2023-04-03T20:34:03.093Z,1.20
2023-04-03T20:36:31.163Z,0.47
2023-04-03T20:38:57.983Z,0.77
2023-04-03T20:41:24.979Z,1.92
2023-04-03T20:43:51.710Z,1.17
2023-04-03T20:46:20.288Z,0.93
2023-04-03T20:48:48.128Z,1.20
2023-04-03T20:51:18.378Z,1.35
2023-04-03T20:53:48.254Z,1.33
2023-04-03T20:56:16.003Z,1.60
2023-04-03T20:58:46.571Z,1.17
2023-04-03T21:01:19.372Z,1.23
2023-04-03T21:03:46.582Z,2.97
2023-04-03T21:06:50.969Z,1.80
2023-04-03T21:12:40.579Z,1.10
2023-04-03T21:15:45.229Z,1.30
2023-04-03T21:18:12.449Z,1.48
2023-04-03T21:20:40.008Z,0.90
2023-04-03T21:23:06.942Z,1.13
2023-04-03T21:25:33.574Z,2.20
2023-04-03T21:28:00.277Z,0.85
2023-04-03T21:30:27.096Z,1.60
2023-04-03T21:32:53.690Z,1.42
2023-04-03T21:35:20.326Z,1.35
2023-04-03T21:37:46.901Z,2.97
2023-04-03T21:40:13.609Z,1.77
2023-04-03T21:42:40.157Z,1.10
2023-04-03T21:45:07.340Z,1.25
2023-04-03T21:47:35.579Z,1.20
2023-04-03T21:50:02.555Z,1.05
2023-04-03T21:52:29.103Z,2.05
2023-04-03T21:54:55.670Z,1.00
2023-04-03T21:57:22.802Z,2.30
2023-04-03T21:59:50.026Z,1.75
2023-04-03T22:02:16.642Z,1.17
2023-04-03T22:04:43.212Z,1.75
2023-04-03T22:07:09.862Z,1.60
2023-04-03T22:09:36.559Z,2.38
2023-04-03T22:12:04.749Z,1.95
2023-04-03T22:14:31.563Z,2.40
2023-04-03T22:16:58.300Z,1.92
2023-04-03T22:19:25.348Z,1.75
2023-04-03T22:21:52.826Z,1.10
2023-04-03T22:24:20.324Z,2.53
2023-04-03T22:26:47.138Z,1.65
2023-04-03T22:29:13.876Z,1.55
2023-04-03T22:31:42.316Z,2.42
2023-04-03T22:34:08.924Z,2.22
2023-04-03T22:36:36.290Z,1.45
2023-04-03T22:39:04.109Z,1.38
2023-04-03T22:41:31.849Z,1.35
2023-04-03T22:43:58.475Z,1.85
2023-04-03T22:46:25.975Z,1.40
2023-04-03T22:48:52.866Z,0.80
2023-04-03T22:51:19.410Z,1.95
2023-04-03T22:53:45.948Z,1.08
2023-04-03T22:56:13.785Z,2.45
2023-04-03T22:58:40.497Z,1.92
2023-04-03T23:01:08.967Z,1.58
2023-04-03T23:03:36.470Z,1.50
2023-04-03T23:06:06.631Z,1.67
2023-04-03T23:08:34.949Z,1.75
2023-04-03T23:11:02.250Z,2.42
2023-04-03T23:13:28.915Z,3.05
2023-04-03T23:15:56.687Z,2.17
2023-04-03T23:18:23.782Z,1.77
2023-04-03T23:20:54.699Z,1.60
2023-04-03T23:23:22.494Z,2.00
2023-04-03T23:25:56.940Z,1.75
2023-04-03T23:28:23.825Z,0.80
2023-04-03T23:30:51.737Z,0.95
2023-04-03T23:33:18.326Z,1.15
2023-04-03T23:35:47.937Z,1.58
2023-04-03T23:38:15.024Z,2.33
2023-04-03T23:40:42.238Z,1.00
2023-04-03T23:43:08.937Z,3.22
2023-04-03T23:45:35.793Z,1.73
2023-04-03T23:48:02.386Z,1.95
2023-04-03T23:50:29.311Z,1.52
2023-04-03T23:52:55.871Z,1.00
2023-04-03T23:55:22.485Z,1.20
2023-04-03T23:57:49.109Z,1.17
